Eastport, MI

3:57 PM EST on January 28, 2015 (GMT -0500)
Cherry Capital | Change Station
CLOSE
Current Station
Airport
Location: Traverse City,
Elevation: 623 ft
Nearby Weather Stations

Elev 623 ft 44.74 °N, 85.59 °W | Updated 1 hour ago

Partly Cloudy
Partly Cloudy
31 °F
Feels Like 24 °F
N
7
Wind Variable Wind from SW

Today
High -- | Low -- °F
--% Chance of Precip.
Yesterday
High -- | Low -- °F
Precip. -- in
8:05 AM 5:42 PM
Waxing Gibbous, 67% visible
Pressure 30.18 in
Visibility 10.0 miles
Clouds Mostly Cloudy 11000 ft
Overcast 25000 ft
Windchill 24 °F
Dew Point 15 °F
Humidity 52%
Rainfall 0.00 in
Snow Depth Not available.
UV 1 out of 12
Pollen .10 out of 12
Air Quality Not available.
Flu Activity Not available.
METAR KTVC 281953Z 22006KT 10SM BKN110 OVC250 M01/M09 A3014 RMK AO2 SLP219 T10061094

More Conditions Fewer Conditions

Pressure 30.18 in
Visibility 10.0 miles
Clouds Mostly Cloudy 11000 ft
Overcast 25000 ft
Windchill 24 °F
Dew Point 15 °F
Humidity 52%
Rainfall 0.00 in
Snow Depth Not available.
UV 1 out of 12
Pollen .10 out of 12
Air Quality Not available.
Flu Activity Not available.
METAR KTVC 281953Z 22006KT 10SM BKN110 OVC250 M01/M09 A3014 RMK AO2 SLP219 T10061094

More Conditions Fewer Conditions

Nowcast | as of 3:00 PM EST on January 28, 2015

At 4 PM...mostly cloudy. Temperature 28. South winds 5 mph. At 6 PM...mostly cloudy. Temperature 26. South winds 5 mph. At 8 PM...mostly cloudy. Temperature 24. South winds 6 mph. At 10 PM...mostly cloudy. Temperature 24. Southeast winds 7 mph.

×

10-Day Weather Forecast

Almanac

Astronomy

Jan. 28, 2015 Rise Set
Actual Time
Civil Twilight
Nautical Twilight
Astronomical Twilight
Moon
Length of Visible Light
Length of Day
Tomorrow will be .
, % of the Moon is Illuminated

Today's Extremes

State Highs State Lows

Community

WunderPhotos

Upload Photos

1,791,252 photos uploaded!

WunderBlogs® & News

Nearby

Air Quality

  Air Quality AQ Index Pollutant
Not available.

Snow Depth

Station Depth Elevation

Earthquake Activity

City Distance Mag. Time & Date
Minimum magnitude displayed is 2.5.

Coastal Water Temperatures

Place Temperature

Nearby Weather Stations